createdAt,value
2023-11-07T00:00:19.369Z,1.30
2023-11-07T00:02:47.119Z,2.10
2023-11-07T00:05:15.827Z,1.40
2023-11-07T00:07:43.612Z,1.83
2023-11-07T00:10:13.065Z,1.83
2023-11-07T00:12:40.888Z,1.50
2023-11-07T00:15:09.666Z,1.70
2023-11-07T00:17:37.940Z,1.40
2023-11-07T00:20:07.047Z,1.30
2023-11-07T00:22:34.761Z,1.60
2023-11-07T00:25:03.100Z,1.33
2023-11-07T00:27:32.199Z,1.75
2023-11-07T00:30:00.494Z,0.90
2023-11-07T00:32:28.893Z,0.82
2023-11-07T00:34:57.395Z,1.38
2023-11-07T00:37:25.348Z,1.67
2023-11-07T00:39:53.082Z,1.50
2023-11-07T00:42:20.757Z,1.33
2023-11-07T00:44:49.832Z,1.35
2023-11-07T00:47:17.593Z,1.58
2023-11-07T00:49:46.302Z,1.25
2023-11-07T00:52:14.743Z,1.50
2023-11-07T00:54:42.461Z,1.48
2023-11-07T00:57:10.733Z,1.10
2023-11-07T00:59:38.492Z,1.45
2023-11-07T01:02:08.027Z,0.90
2023-11-07T01:04:35.818Z,1.13
2023-11-07T01:07:03.884Z,1.20
2023-11-07T01:09:31.696Z,1.20
2023-11-07T01:11:59.501Z,0.85
2023-11-07T01:14:27.288Z,1.40
2023-11-07T01:16:55.668Z,1.92
2023-11-07T01:19:24.980Z,1.13
2023-11-07T01:21:52.904Z,1.02
2023-11-07T01:24:21.769Z,0.95
2023-11-07T01:26:49.530Z,1.02
2023-11-07T01:29:19.008Z,1.10
2023-11-07T01:31:49.216Z,0.82
2023-11-07T01:34:17.289Z,1.08
2023-11-07T01:36:46.575Z,1.10
2023-11-07T01:39:14.910Z,1.60
2023-11-07T01:41:43.152Z,1.35
2023-11-07T01:44:11.743Z,1.13
2023-11-07T01:46:39.839Z,1.10
2023-11-07T01:49:09.768Z,1.30
2023-11-07T01:51:37.906Z,1.27
2023-11-07T01:54:08.440Z,1.13
2023-11-07T01:56:36.339Z,1.15
2023-11-07T01:59:04.252Z,1.30
2023-11-07T02:01:35.038Z,1.42
2023-11-07T02:04:04.146Z,1.10
2023-11-07T02:06:32.208Z,1.02
2023-11-07T02:09:00.095Z,1.25
2023-11-07T02:11:30.514Z,1.30
2023-11-07T02:13:58.556Z,1.30
2023-11-07T02:16:26.293Z,1.23
2023-11-07T02:18:54.087Z,1.10
2023-11-07T02:21:21.842Z,0.90
2023-11-07T02:23:50.968Z,1.10
2023-11-07T02:26:18.713Z,1.40
2023-11-07T02:28:47.376Z,1.30
2023-11-07T02:31:15.084Z,1.00
2023-11-07T02:33:43.047Z,1.00
2023-11-07T02:36:11.437Z,1.70
2023-11-07T02:38:39.534Z,1.23
2023-11-07T02:41:08.825Z,1.25
2023-11-07T02:43:36.527Z,1.20
2023-11-07T02:46:04.309Z,1.23
2023-11-07T02:48:32.172Z,1.17
2023-11-07T02:51:00.505Z,1.60
2023-11-07T02:53:28.221Z,1.30
2023-11-07T02:55:56.157Z,1.02
2023-11-07T02:58:25.235Z,0.90
2023-11-07T03:00:53.127Z,1.35
2023-11-07T03:03:20.954Z,1.42
2023-11-07T03:05:49.012Z,1.15
2023-11-07T03:08:16.866Z,1.13
2023-11-07T03:10:44.683Z,1.35
2023-11-07T03:13:13.670Z,0.65
2023-11-07T03:15:42.984Z,1.20
2023-11-07T03:18:11.627Z,1.13
2023-11-07T03:20:40.020Z,0.90
2023-11-07T03:23:07.771Z,0.93
2023-11-07T03:25:35.494Z,0.85
2023-11-07T03:28:03.225Z,1.35
2023-11-07T03:30:30.956Z,1.13
2023-11-07T03:33:00.227Z,1.00
2023-11-07T03:35:28.578Z,1.30
2023-11-07T03:37:56.381Z,0.70
2023-11-07T03:40:24.151Z,1.50
2023-11-07T03:42:51.868Z,0.75
2023-11-07T03:45:19.625Z,0.60
2023-11-07T03:47:47.616Z,0.90
2023-11-07T03:50:16.848Z,0.68
2023-11-07T03:52:44.618Z,1.00
2023-11-07T03:55:12.321Z,0.65
2023-11-07T03:57:40.101Z,0.60
2023-11-07T04:00:11.853Z,1.08
2023-11-07T04:02:39.844Z,0.82
2023-11-07T04:05:08.657Z,0.98
2023-11-07T04:07:37.757Z,0.77
2023-11-07T04:10:06.840Z,0.90
2023-11-07T04:12:34.714Z,0.80
2023-11-07T04:15:05.422Z,0.77
2023-11-07T04:17:34.517Z,0.80
2023-11-07T04:20:02.286Z,0.60
2023-11-07T04:22:30.123Z,0.90
2023-11-07T04:24:59.296Z,1.33
2023-11-07T04:27:26.982Z,0.95
2023-11-07T04:29:54.756Z,1.20
2023-11-07T04:32:22.548Z,0.60
2023-11-07T04:34:50.368Z,0.80
2023-11-07T04:37:18.106Z,1.00
2023-11-07T04:39:45.850Z,0.85
2023-11-07T04:42:14.945Z,0.90
2023-11-07T04:44:42.720Z,0.90
2023-11-07T04:47:10.941Z,1.42
2023-11-07T04:49:39.765Z,1.00
2023-11-07T04:52:08.659Z,0.95
2023-11-07T04:54:36.932Z,0.63
2023-11-07T04:57:04.972Z,0.80
2023-11-07T04:59:34.156Z,1.23
2023-11-07T05:02:04.869Z,1.02
2023-11-07T05:04:32.693Z,1.00
2023-11-07T05:07:01.520Z,1.08
2023-11-07T05:09:29.366Z,0.82
2023-11-07T05:11:58.352Z,1.17
2023-11-07T05:14:26.158Z,1.35
2023-11-07T05:16:55.958Z,1.05
2023-11-07T05:19:23.843Z,1.05
2023-11-07T05:21:51.669Z,1.10
2023-11-07T05:24:19.539Z,1.00
2023-11-07T05:26:47.360Z,0.93
2023-11-07T05:29:15.995Z,1.15
2023-11-07T05:31:43.747Z,0.80
2023-11-07T05:34:13.401Z,0.75
2023-11-07T05:36:41.125Z,1.00
2023-11-07T05:39:08.902Z,1.08
2023-11-07T05:41:36.742Z,1.00
2023-11-07T05:44:04.626Z,0.90
2023-11-07T05:46:32.559Z,1.10
2023-11-07T05:49:00.472Z,1.27
2023-11-07T05:51:29.581Z,0.95
2023-11-07T05:53:57.343Z,0.90
2023-11-07T05:56:25.047Z,0.98
2023-11-07T05:58:52.791Z,0.90
2023-11-07T06:01:20.730Z,1.17
2023-11-07T06:03:50.144Z,1.42
2023-11-07T06:06:17.959Z,1.05
2023-11-07T06:08:47.070Z,0.90
2023-11-07T06:11:14.755Z,1.15
2023-11-07T06:13:42.465Z,1.20
2023-11-07T06:16:10.940Z,1.50
2023-11-07T06:18:39.798Z,0.70
2023-11-07T06:21:07.743Z,0.98
2023-11-07T06:23:35.480Z,1.23
2023-11-07T06:26:06.702Z,0.77
2023-11-07T06:28:34.413Z,0.98
2023-11-07T06:31:02.152Z,0.90
2023-11-07T06:33:29.993Z,0.95
2023-11-07T06:35:57.920Z,0.88
2023-11-07T06:38:27.094Z,1.02
2023-11-07T06:40:55.822Z,1.02
2023-11-07T06:43:26.499Z,1.35
2023-11-07T06:45:54.463Z,1.27
2023-11-07T06:48:22.402Z,1.10
2023-11-07T06:50:50.337Z,0.98
2023-11-07T06:53:18.026Z,1.00
2023-11-07T06:55:46.019Z,0.90
2023-11-07T06:58:13.770Z,0.82
2023-11-07T07:00:43.733Z,0.98
2023-11-07T07:03:11.672Z,1.38
2023-11-07T07:05:39.596Z,1.20
2023-11-07T07:08:08.637Z,1.17
2023-11-07T07:10:36.452Z,1.42
2023-11-07T07:13:04.178Z,1.20
2023-11-07T07:15:31.867Z,1.08
2023-11-07T07:18:06.005Z,1.10
2023-11-07T07:20:37.812Z,1.00
2023-11-07T07:23:07.105Z,0.68
2023-11-07T07:25:37.533Z,0.90
2023-11-07T07:28:07.315Z,0.80
2023-11-07T07:30:38.486Z,0.75
2023-11-07T07:33:08.756Z,0.60
2023-11-07T07:35:36.579Z,0.70
2023-11-07T07:38:05.137Z,0.90
2023-11-07T07:40:33.764Z,1.50
2023-11-07T07:43:09.962Z,0.60
2023-11-07T07:45:39.564Z,1.00
2023-11-07T07:48:09.399Z,0.80
2023-11-07T07:50:42.605Z,1.00
2023-11-07T07:53:11.840Z,0.70
2023-11-07T07:55:44.744Z,0.80
2023-11-07T07:58:13.142Z,0.73
2023-11-07T08:00:44.748Z,0.77
2023-11-07T08:03:14.414Z,0.73
2023-11-07T08:05:43.935Z,0.90
2023-11-07T08:08:12.593Z,0.82
2023-11-07T08:10:40.955Z,0.73
2023-11-07T08:13:11.450Z,1.02
2023-11-07T08:15:39.526Z,0.90
2023-11-07T08:18:10.302Z,0.90
2023-11-07T08:20:40.414Z,1.10
2023-11-07T08:23:08.396Z,1.02
2023-11-07T08:25:36.380Z,1.00
2023-11-07T08:28:08.072Z,0.95
2023-11-07T08:30:38.484Z,0.90
2023-11-07T08:33:08.513Z,0.80
2023-11-07T08:35:37.536Z,1.17
2023-11-07T08:38:06.784Z,1.02
2023-11-07T08:40:36.537Z,1.02
2023-11-07T08:43:04.632Z,1.05
2023-11-07T08:45:33.941Z,1.20
2023-11-07T08:48:02.261Z,1.20
2023-11-07T08:50:30.104Z,1.30
2023-11-07T08:52:58.557Z,0.85
2023-11-07T08:55:27.931Z,0.82
2023-11-07T08:57:55.622Z,1.00
2023-11-07T09:00:24.393Z,0.65
2023-11-07T09:02:53.429Z,0.90
2023-11-07T09:05:22.301Z,1.00
2023-11-07T09:07:50.154Z,1.05
2023-11-07T09:10:18.103Z,0.75
2023-11-07T09:12:47.180Z,1.08
2023-11-07T09:15:15.073Z,0.95
2023-11-07T09:17:44.413Z,0.80
2023-11-07T09:20:15.456Z,1.40
2023-11-07T09:22:44.244Z,1.38
2023-11-07T09:25:12.900Z,1.55
2023-11-07T09:27:41.206Z,1.38
2023-11-07T09:30:12.511Z,0.90
2023-11-07T09:32:43.293Z,1.48
2023-11-07T09:35:12.339Z,1.20
2023-11-07T09:37:42.183Z,1.80
2023-11-07T09:40:12.172Z,1.15
2023-11-07T09:42:41.353Z,1.40
2023-11-07T09:45:11.341Z,1.20
2023-11-07T09:47:40.890Z,1.48
2023-11-07T09:50:09.739Z,1.42
2023-11-07T09:52:37.849Z,1.58
2023-11-07T09:55:07.626Z,1.48
2023-11-07T09:57:37.866Z,1.45
2023-11-07T10:00:09.938Z,1.63
2023-11-07T10:02:41.488Z,1.70
2023-11-07T10:05:10.877Z,1.60
2023-11-07T10:07:39.696Z,1.70
2023-11-07T10:10:09.277Z,1.75
2023-11-07T10:12:41.056Z,1.38
2023-11-07T10:15:17.167Z,1.75
2023-11-07T10:18:00.030Z,1.40
2023-11-07T10:20:29.129Z,1.15
2023-11-07T10:22:56.848Z,1.30
2023-11-07T10:25:28.373Z,1.48
2023-11-07T10:27:56.488Z,1.40
2023-11-07T10:30:24.298Z,1.35
2023-11-07T10:32:56.973Z,1.30
2023-11-07T10:35:26.917Z,1.38
2023-11-07T10:37:54.636Z,1.10
2023-11-07T10:40:24.090Z,1.33
2023-11-07T10:42:51.916Z,1.08
2023-11-07T10:45:22.662Z,1.23
2023-11-07T10:47:50.771Z,1.10
2023-11-07T10:50:18.910Z,1.25
2023-11-07T10:52:50.198Z,1.33
2023-11-07T10:55:18.111Z,1.45
2023-11-07T10:57:51.143Z,1.60
2023-11-07T11:02:54.625Z,0.80
2023-11-07T11:05:24.657Z,1.23
2023-11-07T11:07:54.694Z,1.10
2023-11-07T11:10:28.613Z,1.60
2023-11-07T11:12:57.475Z,1.20
2023-11-07T11:15:25.804Z,0.80
2023-11-07T11:17:59.136Z,1.05
2023-11-07T11:20:33.840Z,1.10
2023-11-07T11:23:11.420Z,0.90
2023-11-07T11:25:51.496Z,1.20
2023-11-07T11:28:19.309Z,1.15
2023-11-07T11:30:56.030Z,1.30
2023-11-07T11:33:27.765Z,1.20
2023-11-07T11:35:56.292Z,1.30
2023-11-07T11:38:40.397Z,1.00
2023-11-07T11:41:09.198Z,1.20
2023-11-07T11:43:39.535Z,1.17
2023-11-07T11:46:39.791Z,1.00
2023-11-07T11:49:09.686Z,1.13
2023-11-07T11:51:39.987Z,1.17
2023-11-07T11:54:10.421Z,1.10
2023-11-07T11:57:05.956Z,0.90
2023-11-07T11:59:55.244Z,1.33
2023-11-07T12:02:38.034Z,1.60
2023-11-07T12:05:17.142Z,1.27
2023-11-07T12:07:45.778Z,0.93
2023-11-07T12:10:18.198Z,1.13
2023-11-07T12:12:57.537Z,1.05
2023-11-07T12:15:27.302Z,1.10
2023-11-07T12:17:55.578Z,1.08
2023-11-07T12:20:23.999Z,1.40
2023-11-07T12:22:52.512Z,1.38
2023-11-07T12:25:22.635Z,1.33
2023-11-07T12:28:03.448Z,1.20
2023-11-07T12:30:32.103Z,0.90
2023-11-07T12:33:03.959Z,1.10
2023-11-07T12:35:32.341Z,0.90
2023-11-07T12:38:01.804Z,0.90
2023-11-07T12:40:34.685Z,1.10
2023-11-07T12:43:08.396Z,1.27
2023-11-07T12:45:37.774Z,0.90
2023-11-07T12:48:07.270Z,1.08
2023-11-07T12:50:37.015Z,0.80
2023-11-07T12:53:07.141Z,1.02
2023-11-07T12:55:38.737Z,1.10
2023-11-07T12:58:08.311Z,1.02
2023-11-07T13:00:57.441Z,1.00
2023-11-07T13:03:26.851Z,1.10
2023-11-07T13:05:59.398Z,0.82
2023-11-07T13:08:28.261Z,0.90
2023-11-07T13:11:13.674Z,0.80
2023-11-07T13:13:42.910Z,0.70
2023-11-07T13:16:10.690Z,1.00
2023-11-07T13:18:39.351Z,1.92
2023-11-07T13:21:09.634Z,1.98
2023-11-07T13:23:39.129Z,2.92
2023-11-07T13:26:08.369Z,2.65
2023-11-07T13:28:39.028Z,1.42
2023-11-07T13:31:07.152Z,3.22
2023-11-07T13:33:35.105Z,2.20
2023-11-07T13:36:05.038Z,3.90
2023-11-07T13:38:32.829Z,2.70
2023-11-07T13:41:00.564Z,2.60
2023-11-07T13:43:30.271Z,4.40
2023-11-07T13:46:00.029Z,2.83
2023-11-07T13:48:28.018Z,0.80
2023-11-07T13:50:55.947Z,1.35
2023-11-07T13:53:24.113Z,1.60
2023-11-07T13:55:52.378Z,2.47
2023-11-07T13:58:21.790Z,1.27
2023-11-07T14:00:49.682Z,2.08
2023-11-07T14:03:18.994Z,1.73
2023-11-07T14:05:46.831Z,1.88
2023-11-07T14:08:15.878Z,1.40
2023-11-07T14:10:45.553Z,1.40
2023-11-07T14:13:13.975Z,2.90
2023-11-07T14:15:42.511Z,1.95
2023-11-07T14:18:17.005Z,1.20
2023-11-07T14:20:56.202Z,1.50
2023-11-07T14:25:52.140Z,1.65
2023-11-07T14:28:20.404Z,2.08
2023-11-07T14:30:48.296Z,2.30
2023-11-07T14:33:17.762Z,1.40
2023-11-07T14:35:46.605Z,1.50
2023-11-07T14:38:17.053Z,1.20
2023-11-07T14:40:46.622Z,1.42
2023-11-07T14:43:17.310Z,1.50
2023-11-07T14:45:46.432Z,1.00
2023-11-07T14:48:15.209Z,0.70
2023-11-07T14:50:43.553Z,0.70
2023-11-07T14:53:11.742Z,1.25
2023-11-07T14:55:41.003Z,1.60
2023-11-07T14:58:10.463Z,2.42
2023-11-07T15:00:41.574Z,1.30
2023-11-07T15:03:12.308Z,1.73
2023-11-07T15:05:42.989Z,2.13
2023-11-07T15:08:11.205Z,1.25
2023-11-07T15:10:40.477Z,1.40
2023-11-07T15:13:09.041Z,1.60
2023-11-07T15:15:40.406Z,1.70
2023-11-07T15:18:11.327Z,1.10
2023-11-07T15:20:41.543Z,1.55
2023-11-07T15:23:09.902Z,1.52
2023-11-07T15:25:38.946Z,1.63
2023-11-07T15:28:08.102Z,1.85
2023-11-07T15:30:40.387Z,2.40
2023-11-07T15:33:08.592Z,1.10
2023-11-07T15:35:38.630Z,1.55
2023-11-07T15:38:08.433Z,0.75
2023-11-07T15:40:37.302Z,0.70
2023-11-07T15:43:06.474Z,0.85
2023-11-07T15:45:36.533Z,0.80
2023-11-07T15:48:09.112Z,0.98
2023-11-07T15:53:08.726Z,1.55
2023-11-07T15:55:38.267Z,1.45
2023-11-07T15:58:06.769Z,1.10
2023-11-07T16:00:36.505Z,1.25
2023-11-07T16:03:06.050Z,1.30
2023-11-07T16:05:36.642Z,1.42
2023-11-07T16:08:07.640Z,1.13
2023-11-07T16:10:36.301Z,1.42
2023-11-07T16:13:04.766Z,2.25
2023-11-07T16:15:33.954Z,1.33
2023-11-07T16:18:04.100Z,1.08
2023-11-07T16:20:32.141Z,1.20
2023-11-07T16:22:59.920Z,1.15
2023-11-07T16:25:27.846Z,1.10
2023-11-07T16:27:56.172Z,1.08
2023-11-07T16:30:25.195Z,1.17
2023-11-07T16:32:53.157Z,0.90
2023-11-07T16:35:22.424Z,1.00
2023-11-07T16:37:52.785Z,1.08
2023-11-07T16:40:20.673Z,0.95
2023-11-07T16:42:52.792Z,1.00
2023-11-07T16:45:20.693Z,1.00
2023-11-07T16:47:49.709Z,1.10
2023-11-07T16:50:17.720Z,0.90
2023-11-07T16:52:46.842Z,1.35
2023-11-07T16:55:17.417Z,0.68
2023-11-07T16:57:46.323Z,0.82
2023-11-07T17:00:15.978Z,1.08
2023-11-07T17:02:43.929Z,1.00
2023-11-07T17:05:12.790Z,0.98
2023-11-07T17:07:41.085Z,1.00
2023-11-07T17:10:12.075Z,0.88
2023-11-07T17:12:40.428Z,0.90
2023-11-07T17:15:09.691Z,1.65
2023-11-07T17:17:38.182Z,2.03
2023-11-07T17:20:07.902Z,0.80
2023-11-07T17:22:36.878Z,1.10
2023-11-07T17:25:05.940Z,1.05
2023-11-07T17:27:36.305Z,1.50
2023-11-07T17:30:04.560Z,1.30
2023-11-07T17:32:33.307Z,2.33
2023-11-07T17:35:04.663Z,1.20
2023-11-07T17:37:32.774Z,1.90
2023-11-07T17:40:00.696Z,2.42
2023-11-07T17:42:28.592Z,2.80
2023-11-07T17:44:57.765Z,1.70
2023-11-07T17:47:26.709Z,1.85
2023-11-07T17:49:54.639Z,2.30
2023-11-07T17:52:22.409Z,2.03
2023-11-07T17:54:50.965Z,1.75
2023-11-07T17:57:19.518Z,2.15
2023-11-07T17:59:52.868Z,1.70
2023-11-07T18:02:23.988Z,2.42
2023-11-07T18:04:52.374Z,1.38
2023-11-07T18:07:21.073Z,2.20
2023-11-07T18:09:50.187Z,2.10
2023-11-07T18:12:19.024Z,1.33
2023-11-07T18:14:47.040Z,1.40
2023-11-07T18:17:14.800Z,1.40
2023-11-07T18:19:43.961Z,1.77
2023-11-07T18:22:11.722Z,1.63
2023-11-07T18:24:39.531Z,2.92
2023-11-07T18:27:09.781Z,2.20
2023-11-07T18:29:40.212Z,1.67
2023-11-07T18:32:09.835Z,1.60
2023-11-07T18:34:38.061Z,1.58
2023-11-07T18:37:09.811Z,1.38
2023-11-07T18:39:39.166Z,1.65
2023-11-07T18:42:07.814Z,1.20
2023-11-07T18:44:41.979Z,1.60
2023-11-07T18:47:09.862Z,1.17
2023-11-07T18:49:37.786Z,1.55
2023-11-07T18:52:07.630Z,1.45
2023-11-07T18:54:35.679Z,1.20
2023-11-07T18:57:05.196Z,1.23
2023-11-07T18:59:37.501Z,1.75
2023-11-07T19:02:06.603Z,1.02
2023-11-07T19:04:36.736Z,1.33
2023-11-07T19:07:07.183Z,1.20
2023-11-07T19:09:35.311Z,1.33
2023-11-07T19:12:03.431Z,1.33
2023-11-07T19:14:31.467Z,1.20
2023-11-07T19:16:59.338Z,1.65
2023-11-07T19:19:28.476Z,1.40
2023-11-07T19:21:58.862Z,1.88
2023-11-07T19:24:29.022Z,3.60
2023-11-07T19:26:57.000Z,2.92
2023-11-07T19:29:24.877Z,2.80
2023-11-07T19:31:53.793Z,6.57
2023-11-07T19:34:23.361Z,4.15
2023-11-07T19:36:54.045Z,3.85
2023-11-07T19:39:22.690Z,2.20
2023-11-07T19:41:52.023Z,2.20
2023-11-07T19:44:20.892Z,2.55
2023-11-07T19:46:50.832Z,1.80
2023-11-07T19:49:18.821Z,1.27
2023-11-07T19:51:46.707Z,1.73
2023-11-07T19:54:14.871Z,1.40
2023-11-07T19:56:42.846Z,1.55
2023-11-07T19:59:13.237Z,2.58
2023-11-07T20:01:41.079Z,1.83
2023-11-07T20:04:09.607Z,1.95
2023-11-07T20:06:37.810Z,1.02
2023-11-07T20:09:06.282Z,1.20
2023-11-07T20:11:36.274Z,1.00
2023-11-07T20:14:04.552Z,1.52
2023-11-07T20:16:33.871Z,1.80
2023-11-07T20:19:01.720Z,1.55
2023-11-07T20:21:29.692Z,0.60
2023-11-07T20:23:57.723Z,1.15
2023-11-07T20:26:25.601Z,1.33
2023-11-07T20:28:53.864Z,1.02
2023-11-07T20:31:22.256Z,1.10
2023-11-07T20:33:51.955Z,1.20
2023-11-07T20:36:20.858Z,0.68
2023-11-07T20:38:49.046Z,1.02
2023-11-07T20:41:17.571Z,1.23
2023-11-07T20:43:46.237Z,0.95
2023-11-07T20:46:30.154Z,1.17
2023-11-07T20:49:04.626Z,1.50
2023-11-07T20:51:35.451Z,1.20
2023-11-07T20:54:04.712Z,1.42
2023-11-07T20:56:33.945Z,0.90
2023-11-07T20:59:01.960Z,1.02
2023-11-07T21:01:29.773Z,1.02
2023-11-07T21:03:57.669Z,0.60
2023-11-07T21:06:27.146Z,0.70
2023-11-07T21:08:55.334Z,0.95
2023-11-07T21:11:23.201Z,0.70
2023-11-07T21:13:51.923Z,0.85
2023-11-07T21:16:20.105Z,1.40
2023-11-07T21:18:48.842Z,1.30
2023-11-07T21:21:17.490Z,0.95
2023-11-07T21:23:46.670Z,0.80
2023-11-07T21:26:14.775Z,0.60
2023-11-07T21:28:42.678Z,0.70
2023-11-07T21:31:10.440Z,0.88
2023-11-07T21:33:39.518Z,1.30
2023-11-07T21:36:08.004Z,1.50
2023-11-07T21:38:36.079Z,1.20
2023-11-07T21:41:06.649Z,0.82
2023-11-07T21:43:34.735Z,1.13
2023-11-07T21:46:04.181Z,1.25
2023-11-07T21:48:32.101Z,1.15
2023-11-07T21:50:59.981Z,1.20
2023-11-07T21:53:28.010Z,0.93
2023-11-07T21:55:57.279Z,0.85
2023-11-07T21:58:26.512Z,0.73
2023-11-07T22:00:54.239Z,1.02
2023-11-07T22:03:21.986Z,1.17
2023-11-07T22:05:49.754Z,0.80
2023-11-07T22:08:17.515Z,1.20
2023-11-07T22:10:45.219Z,0.77
2023-11-07T22:13:12.962Z,1.02
2023-11-07T22:15:42.562Z,0.80
2023-11-07T22:18:10.885Z,0.80
2023-11-07T22:20:39.405Z,1.02
2023-11-07T22:23:07.111Z,0.80
2023-11-07T22:25:35.045Z,1.08
2023-11-07T22:28:02.768Z,0.88
2023-11-07T22:30:30.518Z,0.90
2023-11-07T22:33:00.251Z,0.63
2023-11-07T22:35:30.098Z,1.23
2023-11-07T22:37:58.082Z,1.20
2023-11-07T22:40:25.807Z,1.05
2023-11-07T22:42:53.513Z,1.02
2023-11-07T22:45:21.529Z,1.20
2023-11-07T22:47:49.364Z,1.05
2023-11-07T22:50:19.187Z,1.42
2023-11-07T22:52:46.987Z,1.17
2023-11-07T22:55:15.763Z,0.90
2023-11-07T22:57:44.664Z,1.00
2023-11-07T23:00:16.903Z,1.77
2023-11-07T23:02:45.351Z,0.85
2023-11-07T23:05:13.352Z,1.05
2023-11-07T23:07:42.740Z,1.20
2023-11-07T23:10:10.947Z,1.50
2023-11-07T23:12:38.990Z,1.10
2023-11-07T23:15:08.411Z,1.13
2023-11-07T23:17:37.479Z,1.23
2023-11-07T23:20:07.818Z,1.60
2023-11-07T23:22:35.599Z,1.40
2023-11-07T23:25:05.223Z,1.02
2023-11-07T23:27:33.006Z,1.20
2023-11-07T23:30:02.195Z,1.63
2023-11-07T23:32:30.088Z,1.25
2023-11-07T23:34:57.843Z,1.52
2023-11-07T23:37:25.558Z,1.45
2023-11-07T23:39:53.443Z,1.77
2023-11-07T23:42:23.761Z,1.60
2023-11-07T23:44:51.488Z,1.85
2023-11-07T23:47:19.828Z,1.70
2023-11-07T23:49:47.557Z,1.58
2023-11-07T23:52:15.298Z,2.05
2023-11-07T23:54:43.019Z,1.63
2023-11-07T23:57:13.288Z,1.83
2023-11-07T23:59:42.363Z,1.50
